Málaga, Espanja

28. toukokuuta 2015 klo 11:45 (CEST) (GMT +0200)
IALALHAU2 | | Change Station
CLOSE
Current Station
Omat sääasemat
Location: Alhaurin De La Torre, Malaga
Korkeus: 360 ft
Lähimmät sääasemat

Kork 360 ft 36.66 °N, 4.55 °W | Updated 4 minutes ago

Clear
Selkeää
76.3 °F
Tuntuu kuin 77 °F
N
7.0
Tuuli Suunnaltaan vaihteleva Tuuli ilmansuunnasta Itä
Gusts 11.0 mph

Tänään
Korkea -- | Matala -- °F
--% Sateen mahd.
Eilen
Korkea -- | Matala -- °F
Precip. -- tuumaa
7:02 AM 9:28 PM
Kasvava kupera kuu, 74% visible
Ilmanpaine 30.04 tuumaa
Näkyvyys -9999.0 mailia
Pilviä
Lämpötilaindeksi 77 °F
Kastepiste 43 °F
Ilmankosteus 31%
Sademäärä -999.00 tuumaa
Lumensyvyys Ei saatavilla
UV Ei saatavilla
Pollen Ei saatavilla
Ilmanlaatu Ei saatavilla
Flu Activity Ei saatavilla
METAR LEMG 280930Z 12006KT 080V170 CAVOK 24/08 Q1017 NOSIG

More Conditions Fewer Conditions

Ilmanpaine 30.04 tuumaa
Näkyvyys -9999.0 mailia
Pilviä
Lämpötilaindeksi 77 °F
Kastepiste 43 °F
Ilmankosteus 31%
Sademäärä -999.00 tuumaa
Lumensyvyys Ei saatavilla
UV Ei saatavilla
Pollen Ei saatavilla
Ilmanlaatu Ei saatavilla
Flu Activity Ei saatavilla
METAR LEMG 280930Z 12006KT 080V170 CAVOK 24/08 Q1017 NOSIG

More Conditions Fewer Conditions

10-Day Weather Forecast

Almanac

Tähtitiede

May. 28, 2015 Nousuaika Laskuaika
Valoisa aika
Porvarillinen hämärä
Nauttinen hämärä
Astronominen hämärä
Kuu
Näkyvän valon pituus
Päivän pituus
Tomorrow will be .
, % of the Moon is Illuminated

Tämän päivän ennätykset

Country Highs Country Lows

Community

WunderPhotos

Upload Photos

1,824,935 photos uploaded!

WunderBlogs® & News

Nearby

Ilmanlaatu

  Ilmanlaatu AQ Index Pollutant
Not available.

Lumensyvyys

Station Depth Korkeus

Maanjäristysaktiivisuus

Paikkakunta Distance Mag. Time & Date
Minimum magnitude displayed is 2.5.

Coastal Water Temperatures

Paikka Lämpötila

Stations

Lähimmät sääasemat

Aseman sijainti Lämpötila Tuulen hyytävyys Kastepiste Ilmankosteus Tuuli Precip. Kork Päivitetty Tyyppi